createdAt,value
2023-02-18T00:01:39.460Z,35.67
2023-02-18T00:04:41.204Z,32.47
2023-02-18T00:07:42.808Z,33.23
2023-02-18T00:10:44.512Z,36.33
2023-02-18T00:13:56.587Z,33.97
2023-02-18T00:16:58.394Z,40.53
2023-02-18T00:20:00.073Z,38.70
2023-02-18T00:23:02.619Z,30.37
2023-02-18T00:26:05.918Z,34.73
2023-02-18T00:29:07.837Z,30.53
2023-02-18T00:32:09.488Z,29.30
2023-02-18T00:35:11.096Z,28.37
2023-02-18T00:38:12.731Z,20.30
2023-02-18T00:41:14.747Z,29.50
2023-02-18T00:44:16.421Z,24.80
2023-02-18T00:47:18.027Z,26.67
2023-02-18T00:50:19.691Z,26.50
2023-02-18T00:53:22.652Z,28.20
2023-02-18T00:56:24.421Z,23.73
2023-02-18T00:59:26.071Z,26.47
2023-02-18T01:02:27.932Z,18.43
2023-02-18T01:05:29.587Z,18.50
2023-02-18T01:08:31.394Z,22.60
2023-02-18T01:11:33.119Z,20.43
2023-02-18T01:14:35.140Z,18.10
2023-02-18T01:17:36.716Z,17.90
2023-02-18T01:20:41.248Z,18.73
2023-02-18T01:23:43.021Z,21.50
2023-02-18T01:26:44.625Z,26.37
2023-02-18T01:29:46.279Z,27.97
2023-02-18T01:32:47.884Z,25.67
2023-02-18T01:35:49.862Z,26.00
2023-02-18T01:38:51.566Z,25.60
2023-02-18T01:41:53.175Z,26.23
2023-02-18T01:44:55.078Z,22.33
2023-02-18T01:47:56.737Z,22.90
2023-02-18T01:51:16.567Z,23.73
2023-02-18T01:54:30.449Z,21.50
2023-02-18T01:57:35.145Z,21.77
2023-02-18T02:00:37.072Z,19.87
2023-02-18T02:03:38.714Z,20.30
2023-02-18T02:06:40.358Z,21.57
2023-02-18T02:09:42.812Z,25.87
2023-02-18T02:12:47.462Z,25.30
2023-02-18T02:15:57.691Z,24.37
2023-02-18T02:18:59.295Z,20.93
2023-02-18T02:22:19.492Z,20.67
2023-02-18T02:25:24.337Z,19.30
2023-02-18T02:28:36.227Z,15.30
2023-02-18T02:31:50.893Z,15.90
2023-02-18T02:34:55.582Z,10.73
2023-02-18T02:38:07.580Z,11.40
2023-02-18T02:41:21.696Z,17.87
2023-02-18T02:44:34.676Z,10.77
2023-02-18T02:47:47.867Z,12.37
2023-02-18T02:51:10.456Z,11.47
2023-02-18T02:54:20.332Z,12.77
2023-02-18T02:57:25.109Z,14.00
2023-02-18T03:00:40.052Z,12.13
2023-02-18T03:04:00.600Z,16.60
2023-02-18T03:07:17.242Z,14.50
2023-02-18T03:10:28.021Z,20.10
2023-02-18T03:13:29.632Z,19.30
2023-02-18T03:16:32.132Z,19.50
2023-02-18T03:19:39.660Z,19.83
2023-02-18T03:22:46.522Z,22.00
2023-02-18T03:25:48.432Z,21.40
2023-02-18T03:28:51.858Z,22.37
2023-02-18T03:32:00.307Z,22.80
2023-02-18T03:35:04.816Z,19.43
2023-02-18T03:38:12.529Z,20.47
2023-02-18T03:41:14.345Z,19.60
2023-02-18T03:44:16.917Z,18.63
2023-02-18T03:47:18.606Z,15.03
2023-02-18T03:50:20.324Z,15.67
2023-02-18T03:53:21.959Z,15.93
2023-02-18T03:56:23.705Z,14.47
2023-02-18T03:59:25.331Z,15.83
2023-02-18T04:02:27.251Z,19.70
2023-02-18T04:05:28.964Z,15.47
2023-02-18T04:08:30.630Z,14.70
2023-02-18T04:11:32.197Z,9.10
2023-02-18T04:14:33.768Z,10.33
2023-02-18T04:17:35.404Z,7.60
2023-02-18T04:20:37.491Z,8.30
2023-02-18T04:23:39.090Z,7.50
2023-02-18T04:26:40.831Z,4.80
2023-02-18T04:29:42.662Z,7.30
2023-02-18T04:32:44.244Z,6.63
2023-02-18T04:35:45.939Z,10.80
2023-02-18T04:38:47.535Z,8.60
2023-02-18T04:41:49.126Z,9.37
2023-02-18T04:44:50.661Z,8.03
2023-02-18T04:47:52.688Z,9.83
2023-02-18T04:50:54.316Z,15.43
2023-02-18T04:53:55.880Z,16.37
2023-02-18T04:56:57.539Z,16.53
2023-02-18T04:59:59.199Z,19.27
2023-02-18T05:03:00.766Z,18.47
2023-02-18T05:06:03.412Z,18.50
2023-02-18T05:09:05.049Z,16.93
2023-02-18T05:12:06.879Z,20.47
2023-02-18T05:15:08.931Z,18.63
2023-02-18T05:18:10.603Z,14.70
2023-02-18T05:21:12.268Z,18.23
2023-02-18T05:24:14.068Z,20.13
2023-02-18T05:27:15.670Z,20.43
2023-02-18T05:30:17.419Z,20.10
2023-02-18T05:33:19.005Z,19.80
2023-02-18T05:36:20.727Z,21.43
2023-02-18T05:39:22.389Z,24.67
2023-02-18T05:42:24.104Z,26.67
2023-02-18T05:45:25.683Z,28.73
2023-02-18T05:48:27.284Z,27.93
2023-02-18T05:51:28.911Z,28.93
2023-02-18T05:54:30.730Z,28.90
2023-02-18T05:57:32.299Z,23.97
2023-02-18T06:00:33.981Z,22.43
2023-02-18T06:03:36.830Z,23.57
2023-02-18T06:06:38.476Z,20.77
2023-02-18T06:09:40.099Z,25.93
2023-02-18T06:12:41.684Z,27.77
2023-02-18T06:15:43.334Z,26.70
2023-02-18T06:18:44.930Z,17.13
2023-02-18T06:21:46.666Z,22.73
2023-02-18T06:24:48.293Z,33.67
2023-02-18T06:27:49.894Z,30.90
2023-02-18T06:30:51.543Z,34.47
2023-02-18T06:33:53.148Z,37.03
2023-02-18T06:36:54.728Z,29.23
2023-02-18T06:39:56.371Z,32.50
2023-02-18T06:42:57.955Z,33.20
2023-02-18T06:45:59.564Z,34.60
2023-02-18T06:49:01.254Z,36.47
2023-02-18T06:52:02.833Z,34.30
2023-02-18T06:55:09.412Z,33.13
2023-02-18T06:58:11.993Z,35.20
2023-02-18T07:01:13.618Z,45.30
2023-02-18T07:04:15.315Z,41.23
2023-02-18T07:07:16.947Z,43.90
2023-02-18T07:10:18.517Z,48.30
2023-02-18T07:13:20.133Z,41.80
2023-02-18T07:16:21.801Z,53.43
2023-02-18T07:19:23.499Z,49.17
2023-02-18T07:22:25.165Z,51.87
2023-02-18T07:25:26.984Z,39.70
2023-02-18T07:28:28.662Z,45.87
2023-02-18T07:31:30.479Z,29.67
2023-02-18T07:34:32.087Z,39.43
2023-02-18T07:37:33.787Z,37.70
2023-02-18T07:40:35.831Z,37.63
2023-02-18T07:43:37.378Z,32.93
2023-02-18T07:46:42.325Z,48.97
2023-02-18T07:49:43.931Z,52.67
2023-02-18T07:52:45.618Z,59.33
2023-02-18T07:55:50.031Z,57.47
2023-02-18T07:58:51.655Z,48.13
2023-02-18T08:01:53.286Z,50.27
2023-02-18T08:04:54.893Z,53.10
2023-02-18T08:07:56.463Z,50.25
2023-02-18T08:11:02.734Z,65.10
2023-02-18T08:14:08.883Z,54.77
2023-02-18T08:17:10.432Z,48.80
2023-02-18T08:20:12.154Z,63.03
2023-02-18T08:23:14.303Z,60.90
2023-02-18T08:26:15.937Z,59.40
2023-02-18T08:29:17.624Z,80.90
2023-02-18T08:32:19.260Z,66.97
2023-02-18T08:35:21.088Z,70.30
2023-02-18T08:38:23.782Z,79.40
2023-02-18T08:41:25.382Z,87.90
2023-02-18T08:44:27.183Z,87.53
2023-02-18T08:48:18.202Z,81.40
2023-02-18T08:50:50.338Z,82.57
2023-02-18T08:53:54.178Z,107.57
2023-02-18T08:56:57.760Z,82.30
2023-02-18T08:59:59.373Z,83.40
2023-02-18T09:03:00.992Z,100.33
2023-02-18T09:06:02.764Z,82.93
2023-02-18T09:09:04.386Z,88.23
2023-02-18T09:12:06.292Z,120.77
2023-02-18T09:15:08.182Z,94.37
2023-02-18T09:18:09.843Z,78.93
2023-02-18T09:21:12.364Z,93.40
2023-02-18T09:24:14.034Z,91.50
2023-02-18T09:27:15.722Z,97.50
2023-02-18T09:30:17.466Z,138.03
2023-02-18T09:33:19.342Z,117.93
2023-02-18T09:36:20.979Z,149.90
2023-02-18T09:39:22.606Z,223.47
2023-02-18T09:42:34.189Z,121.07
2023-02-18T09:45:35.828Z,41.93
2023-02-18T09:48:37.732Z,12.60
2023-02-18T09:51:39.308Z,13.90
2023-02-18T09:54:41.197Z,18.20
2023-02-18T09:57:47.784Z,33.53
2023-02-18T10:00:51.301Z,46.93
2023-02-18T10:03:55.683Z,11.73
2023-02-18T10:06:58.011Z,25.10
2023-02-18T10:10:02.882Z,25.03
2023-02-18T10:13:05.105Z,26.10
2023-02-18T10:16:07.898Z,13.57
2023-02-18T10:19:15.691Z,18.70
2023-02-18T10:22:18.348Z,17.97
2023-02-18T10:25:22.617Z,12.63
2023-02-18T10:28:25.057Z,31.80
2023-02-18T10:31:32.564Z,14.53
2023-02-18T10:34:37.332Z,15.37
2023-02-18T10:37:38.906Z,13.70
2023-02-18T10:41:04.073Z,9.70
2023-02-18T10:44:25.403Z,23.57
2023-02-18T10:47:42.499Z,21.50
2023-02-18T10:50:45.163Z,19.00
2023-02-18T10:53:48.361Z,11.70
2023-02-18T10:56:51.121Z,12.03
2023-02-18T10:59:58.829Z,10.23
2023-02-18T11:03:17.573Z,16.37
2023-02-18T11:06:27.589Z,11.80
2023-02-18T11:09:29.128Z,13.00
2023-02-18T11:12:35.574Z,8.20
2023-02-18T11:15:37.433Z,10.40
2023-02-18T11:18:40.489Z,7.23
2023-02-18T11:21:42.386Z,15.00
2023-02-18T11:24:48.367Z,12.20
2023-02-18T11:27:52.327Z,10.07
2023-02-18T11:30:55.246Z,8.87
2023-02-18T11:33:58.090Z,17.37
2023-02-18T11:37:19.558Z,11.00
2023-02-18T11:40:25.930Z,10.20
2023-02-18T11:43:29.891Z,17.13
2023-02-18T11:46:31.671Z,11.10
2023-02-18T11:49:34.857Z,11.47
2023-02-18T11:52:57.628Z,10.70
2023-02-18T11:56:01.377Z,10.20
2023-02-18T11:59:04.393Z,19.80
2023-02-18T12:02:12.163Z,14.97
2023-02-18T12:05:22.503Z,14.27
2023-02-18T12:08:25.669Z,14.13
2023-02-18T12:11:29.233Z,18.90
2023-02-18T12:14:30.885Z,15.50
2023-02-18T12:17:59.150Z,15.10
2023-02-18T12:21:12.815Z,13.93
2023-02-18T12:24:26.831Z,20.40
2023-02-18T12:27:51.777Z,10.60
2023-02-18T12:30:53.375Z,15.90
2023-02-18T12:33:57.911Z,13.63
2023-02-18T12:37:11.612Z,8.87
2023-02-18T12:40:21.032Z,13.33
2023-02-18T12:43:35.129Z,10.80
2023-02-18T12:46:36.727Z,13.20
2023-02-18T12:49:53.726Z,19.07
2023-02-18T12:52:58.414Z,11.67
2023-02-18T12:56:18.607Z,11.40
2023-02-18T12:59:39.132Z,12.50
2023-02-18T13:03:08.253Z,12.80
2023-02-18T13:06:32.904Z,11.60
2023-02-18T13:09:34.508Z,9.60
2023-02-18T13:12:36.126Z,16.30
2023-02-18T13:15:37.825Z,12.17
2023-02-18T13:18:41.312Z,7.33
2023-02-18T13:21:45.377Z,11.83
2023-02-18T13:24:48.321Z,12.23
2023-02-18T13:27:59.158Z,9.23
2023-02-18T13:31:24.109Z,7.87
2023-02-18T13:34:25.743Z,9.73
2023-02-18T13:37:45.932Z,6.40
2023-02-18T13:40:47.565Z,6.70
2023-02-18T13:43:49.185Z,13.60
2023-02-18T13:46:58.128Z,12.03
2023-02-18T13:49:59.740Z,13.27
2023-02-18T13:53:07.643Z,11.07
2023-02-18T13:56:10.787Z,7.93
2023-02-18T13:59:30.726Z,9.90
2023-02-18T14:02:34.049Z,10.73
2023-02-18T14:05:40.229Z,6.83
2023-02-18T14:08:42.343Z,7.60
2023-02-18T14:11:46.960Z,8.50
2023-02-18T14:14:48.682Z,10.20
2023-02-18T14:18:07.139Z,13.97
2023-02-18T14:21:11.703Z,12.93
2023-02-18T14:24:13.456Z,11.83
2023-02-18T14:27:16.640Z,17.80
2023-02-18T14:30:24.584Z,7.50
2023-02-18T14:33:26.655Z,10.90
2023-02-18T14:36:28.256Z,13.57
2023-02-18T14:39:38.953Z,10.20
2023-02-18T14:42:58.919Z,9.50
2023-02-18T14:46:08.423Z,13.70
2023-02-18T14:49:10.005Z,11.60
2023-02-18T14:52:16.952Z,11.43
2023-02-18T14:55:29.342Z,8.63
2023-02-18T14:58:31.006Z,12.57
2023-02-18T15:01:34.138Z,17.43
2023-02-18T15:04:36.474Z,12.97
2023-02-18T15:07:38.107Z,11.87
2023-02-18T15:10:52.214Z,14.33
2023-02-18T15:13:54.490Z,6.60
2023-02-18T15:16:56.553Z,15.47
2023-02-18T15:20:07.241Z,11.77
2023-02-18T15:23:12.072Z,11.57
2023-02-18T15:26:14.674Z,13.20
2023-02-18T15:29:19.798Z,19.83
2023-02-18T15:32:22.682Z,12.83
2023-02-18T15:35:29.277Z,15.87
2023-02-18T15:38:31.167Z,13.07
2023-02-18T15:41:32.767Z,19.97
2023-02-18T15:44:35.660Z,25.57
2023-02-18T15:47:41.870Z,31.97
2023-02-18T15:50:49.952Z,19.23
2023-02-18T15:53:53.262Z,18.87
2023-02-18T15:56:55.856Z,9.90
2023-02-18T16:00:04.381Z,12.63
2023-02-18T16:03:21.074Z,11.87
2023-02-18T16:06:22.627Z,13.50
2023-02-18T16:09:24.250Z,20.47
2023-02-18T16:12:30.050Z,28.00
2023-02-18T16:15:41.118Z,31.93
2023-02-18T16:18:42.890Z,31.93
2023-02-18T16:21:45.117Z,27.63
2023-02-18T16:24:51.815Z,33.53
2023-02-18T16:28:02.893Z,28.00
2023-02-18T16:31:04.571Z,40.20
2023-02-18T16:34:06.236Z,56.87
2023-02-18T16:37:27.828Z,41.10
2023-02-18T16:40:33.683Z,54.00
2023-02-18T16:43:35.481Z,84.33
2023-02-18T16:46:37.342Z,72.27
2023-02-18T16:49:39.594Z,76.17
2023-02-18T16:52:41.516Z,89.47
2023-02-18T16:55:43.217Z,124.73
2023-02-18T16:58:45.169Z,174.00
2023-02-18T17:01:46.902Z,126.97
2023-02-18T17:04:48.638Z,186.43
2023-02-18T17:07:50.330Z,117.97
2023-02-18T17:10:56.336Z,183.97
2023-02-18T17:14:00.888Z,88.40
2023-02-18T17:17:02.583Z,102.23
2023-02-18T17:20:04.330Z,97.43
2023-02-18T17:23:05.992Z,88.53
2023-02-18T17:26:13.039Z,93.17
2023-02-18T17:29:14.605Z,99.60
2023-02-18T17:32:16.227Z,117.67
2023-02-18T17:35:22.203Z,80.63
2023-02-18T17:38:23.843Z,97.80
2023-02-18T17:41:25.874Z,119.20
2023-02-18T17:44:29.185Z,89.30
2023-02-18T17:47:30.823Z,92.53
2023-02-18T17:50:35.861Z,84.00
2023-02-18T17:53:37.504Z,58.93
2023-02-18T17:56:39.186Z,75.97
2023-02-18T17:59:43.330Z,101.13
2023-02-18T18:02:45.050Z,105.37
2023-02-18T18:05:49.145Z,86.57
2023-02-18T18:08:51.023Z,70.40
2023-02-18T18:11:52.613Z,51.73
2023-02-18T18:14:54.212Z,59.87
2023-02-18T18:17:56.710Z,57.87
2023-02-18T18:20:59.574Z,63.77
2023-02-18T18:24:01.313Z,63.73
2023-02-18T18:27:02.940Z,67.90
2023-02-18T18:30:05.013Z,63.60
2023-02-18T18:33:13.248Z,63.47
2023-02-18T18:36:15.612Z,64.97
2023-02-18T18:39:20.125Z,61.23
2023-02-18T18:42:21.830Z,62.67
2023-02-18T18:45:26.191Z,61.80
2023-02-18T18:48:27.903Z,57.00
2023-02-18T18:51:30.460Z,53.23
2023-02-18T18:54:32.033Z,50.17
2023-02-18T18:57:33.648Z,44.73
2023-02-18T19:00:40.373Z,47.47
2023-02-18T19:03:42.430Z,50.17
2023-02-18T19:06:43.998Z,40.80
2023-02-18T19:09:45.581Z,43.90
2023-02-18T19:12:47.298Z,30.80
2023-02-18T19:15:49.612Z,32.57
2023-02-18T19:18:51.319Z,37.57
2023-02-18T19:21:53.525Z,33.80
2023-02-18T19:24:55.140Z,42.50
2023-02-18T19:27:56.960Z,42.37
2023-02-18T19:30:58.588Z,37.03
2023-02-18T19:34:00.278Z,39.97
2023-02-18T19:37:02.178Z,54.27
2023-02-18T19:40:04.651Z,36.60
2023-02-18T19:43:06.424Z,24.33
2023-02-18T19:46:11.988Z,24.33
2023-02-18T19:49:13.522Z,27.00
2023-02-18T19:52:15.117Z,39.07
2023-02-18T19:55:16.815Z,28.70
2023-02-18T19:58:18.414Z,37.50
2023-02-18T20:01:20.045Z,36.83
2023-02-18T20:04:22.279Z,34.87
2023-02-18T20:07:23.961Z,38.33
2023-02-18T20:10:25.636Z,41.33
2023-02-18T20:13:27.323Z,39.37
2023-02-18T20:16:28.983Z,36.43
2023-02-18T20:19:31.968Z,18.47
2023-02-18T20:22:33.855Z,29.83
2023-02-18T20:25:35.477Z,24.87
2023-02-18T20:28:37.158Z,22.40
2023-02-18T20:31:38.812Z,20.57
2023-02-18T20:34:41.133Z,18.43
2023-02-18T20:37:43.159Z,17.87
2023-02-18T20:40:44.744Z,24.97
2023-02-18T20:43:46.984Z,32.47
2023-02-18T20:46:49.793Z,31.03
2023-02-18T20:49:51.566Z,33.43
2023-02-18T20:52:53.323Z,35.50
2023-02-18T20:55:54.920Z,31.97
2023-02-18T20:58:56.600Z,39.07
2023-02-18T21:01:58.225Z,34.37
2023-02-18T21:04:59.825Z,30.97
2023-02-18T21:08:01.447Z,21.67
2023-02-18T21:11:04.373Z,20.60
2023-02-18T21:14:06.942Z,23.77
2023-02-18T21:17:09.630Z,21.53
2023-02-18T21:20:11.379Z,23.57
2023-02-18T21:23:13.060Z,22.67
2023-02-18T21:26:16.941Z,23.20
2023-02-18T21:29:18.613Z,22.57
2023-02-18T21:32:20.342Z,24.70
2023-02-18T21:35:21.985Z,24.63
2023-02-18T21:38:23.617Z,30.90
2023-02-18T21:41:25.821Z,30.90
2023-02-18T21:44:41.276Z,28.27
2023-02-18T21:47:44.131Z,15.00
2023-02-18T21:50:45.883Z,24.27
2023-02-18T21:53:47.480Z,17.37
2023-02-18T21:56:49.488Z,18.27
2023-02-18T21:59:51.376Z,14.77
2023-02-18T22:02:52.988Z,21.97
2023-02-18T22:05:54.658Z,24.37
2023-02-18T22:08:56.267Z,25.73
2023-02-18T22:11:57.918Z,28.50
2023-02-18T22:14:59.616Z,24.47
2023-02-18T22:18:01.188Z,19.43
2023-02-18T22:21:06.426Z,18.07
2023-02-18T22:24:08.567Z,12.13
2023-02-18T22:27:10.233Z,14.50
2023-02-18T22:30:12.059Z,15.23
2023-02-18T22:33:13.682Z,15.20
2023-02-18T22:36:15.494Z,15.47
2023-02-18T22:39:17.262Z,14.43
2023-02-18T22:42:18.910Z,14.70
2023-02-18T22:45:20.481Z,16.27
2023-02-18T22:48:22.055Z,16.70
2023-02-18T22:51:25.115Z,15.97
2023-02-18T22:54:26.763Z,27.03
2023-02-18T22:57:28.460Z,20.60
2023-02-18T23:00:30.026Z,21.53
2023-02-18T23:03:31.689Z,25.03
2023-02-18T23:06:33.704Z,24.63
2023-02-18T23:09:35.352Z,16.37
2023-02-18T23:12:36.990Z,21.87
2023-02-18T23:15:38.650Z,23.83
2023-02-18T23:18:40.552Z,12.63
2023-02-18T23:21:42.136Z,19.33
2023-02-18T23:24:44.611Z,15.53
2023-02-18T23:27:46.236Z,9.57
2023-02-18T23:30:47.947Z,9.67
2023-02-18T23:33:52.678Z,11.13
2023-02-18T23:36:54.536Z,12.03
2023-02-18T23:39:56.182Z,14.00
2023-02-18T23:42:57.833Z,11.83
2023-02-18T23:45:59.869Z,10.67
2023-02-18T23:49:01.583Z,6.47
2023-02-18T23:52:03.230Z,7.17
2023-02-18T23:55:05.009Z,7.70
2023-02-18T23:58:06.643Z,6.33
